createdAt,value
2023-01-19T00:00:32.302Z,4.89
2023-01-19T00:02:59.042Z,4.98
2023-01-19T00:05:25.791Z,4.88
2023-01-19T00:07:52.525Z,4.69
2023-01-19T00:10:19.543Z,4.73
2023-01-19T00:12:46.339Z,4.74
2023-01-19T00:15:13.049Z,4.63
2023-01-19T00:17:41.200Z,4.52
2023-01-19T00:20:09.549Z,4.43
2023-01-19T00:22:36.561Z,4.74
2023-01-19T00:25:03.687Z,4.25
2023-01-19T00:27:34.912Z,4.33
2023-01-19T00:30:02.165Z,4.19
2023-01-19T00:32:28.951Z,4.18
2023-01-19T00:34:55.595Z,4.29
2023-01-19T00:37:22.261Z,4.44
2023-01-19T00:39:48.948Z,4.46
2023-01-19T00:42:33.928Z,4.50
2023-01-19T00:45:00.647Z,4.44
2023-01-19T00:47:27.333Z,4.36
2023-01-19T00:49:53.997Z,4.40
2023-01-19T00:52:20.646Z,4.42
2023-01-19T00:54:47.230Z,4.37
2023-01-19T00:57:15.476Z,4.50
2023-01-19T00:59:42.221Z,4.61
2023-01-19T01:02:08.912Z,4.69
2023-01-19T01:04:35.714Z,4.73
2023-01-19T01:07:02.411Z,4.84
2023-01-19T01:09:29.194Z,4.95
2023-01-19T01:11:56.848Z,4.85
2023-01-19T01:14:24.186Z,4.83
2023-01-19T01:16:50.927Z,4.78
2023-01-19T01:19:17.633Z,4.75
2023-01-19T01:21:44.318Z,4.74
2023-01-19T01:24:10.990Z,4.78
2023-01-19T01:26:37.673Z,4.70
2023-01-19T01:29:06.500Z,4.69
2023-01-19T01:31:33.254Z,4.56
2023-01-19T01:33:59.999Z,4.70
2023-01-19T01:36:29.223Z,4.78
2023-01-19T01:38:55.996Z,4.69
2023-01-19T01:41:25.464Z,4.22
2023-01-19T01:43:58.473Z,4.33
2023-01-19T01:46:26.426Z,4.15
2023-01-19T01:49:23.780Z,4.10
2023-01-19T01:51:52.683Z,3.93
2023-01-19T01:54:27.996Z,3.92
2023-01-19T01:56:55.403Z,3.83
2023-01-19T01:59:29.799Z,3.75
2023-01-19T02:02:17.140Z,4.15
2023-01-19T02:04:52.401Z,4.17
2023-01-19T02:07:48.907Z,4.16
2023-01-19T02:10:34.734Z,4.19
2023-01-19T02:13:20.034Z,4.09
2023-01-19T02:15:48.493Z,4.21
2023-01-19T02:18:15.885Z,4.23
2023-01-19T02:20:48.196Z,4.38
2023-01-19T02:23:20.424Z,4.22
2023-01-19T02:25:47.884Z,4.35
2023-01-19T02:28:15.001Z,4.44
2023-01-19T02:30:41.865Z,4.46
2023-01-19T02:33:08.635Z,4.52
2023-01-19T02:35:38.075Z,4.53
2023-01-19T02:38:05.384Z,4.24
2023-01-19T02:40:32.092Z,4.21
2023-01-19T02:43:01.196Z,4.26
2023-01-19T02:45:28.243Z,4.20
2023-01-19T02:47:55.020Z,4.41
2023-01-19T02:50:46.217Z,4.44
2023-01-19T02:53:34.742Z,4.42
2023-01-19T02:56:28.286Z,4.41
2023-01-19T02:59:11.361Z,4.21
2023-01-19T03:01:38.171Z,4.16
2023-01-19T03:04:34.286Z,4.29
2023-01-19T03:07:11.425Z,4.25
2023-01-19T03:09:52.842Z,4.12
2023-01-19T03:12:35.120Z,4.04
2023-01-19T03:15:07.972Z,4.04
2023-01-19T03:17:35.328Z,3.96
2023-01-19T03:20:03.810Z,3.83
2023-01-19T03:22:30.557Z,3.79
2023-01-19T03:25:00.177Z,3.77
2023-01-19T03:27:29.703Z,3.94
2023-01-19T03:30:00.951Z,4.03
2023-01-19T03:32:55.444Z,3.99
2023-01-19T03:35:24.382Z,3.92
2023-01-19T03:37:53.290Z,3.80
2023-01-19T03:40:20.168Z,3.70
2023-01-19T03:42:47.030Z,3.63
2023-01-19T03:45:14.804Z,3.63
2023-01-19T03:47:42.087Z,3.80
2023-01-19T03:50:14.083Z,3.97
2023-01-19T03:52:40.749Z,3.95
2023-01-19T03:55:07.699Z,4.01
2023-01-19T03:57:34.431Z,3.96
2023-01-19T04:00:01.133Z,3.86
2023-01-19T04:02:27.843Z,3.85
2023-01-19T04:04:54.449Z,3.87
2023-01-19T04:07:21.117Z,3.88
2023-01-19T04:09:47.773Z,3.92
2023-01-19T04:12:14.392Z,3.72
2023-01-19T04:14:41.075Z,3.58
2023-01-19T04:17:07.765Z,3.40
2023-01-19T04:19:34.413Z,3.30
2023-01-19T04:22:02.201Z,3.38
2023-01-19T04:24:29.003Z,3.33
2023-01-19T04:26:55.650Z,3.29
2023-01-19T04:29:22.292Z,3.11
2023-01-19T04:31:48.948Z,3.18
2023-01-19T04:34:15.690Z,3.22
2023-01-19T04:36:42.307Z,3.26
2023-01-19T04:39:09.290Z,3.36
2023-01-19T04:41:36.020Z,3.41
2023-01-19T04:44:02.745Z,3.47
2023-01-19T04:46:29.439Z,3.52
2023-01-19T04:48:56.051Z,3.70
2023-01-19T04:51:22.822Z,3.67
2023-01-19T04:53:49.435Z,3.56
2023-01-19T04:56:16.130Z,3.64
2023-01-19T04:58:42.764Z,3.79
2023-01-19T05:01:10.102Z,3.70
2023-01-19T05:03:36.765Z,3.68
2023-01-19T05:06:03.484Z,3.54
2023-01-19T05:08:31.131Z,3.49
2023-01-19T05:10:58.104Z,3.51
2023-01-19T05:13:24.854Z,3.62
2023-01-19T05:15:51.588Z,3.75
2023-01-19T05:18:18.709Z,3.79
2023-01-19T05:20:45.386Z,3.86
2023-01-19T05:23:12.105Z,3.89
2023-01-19T05:25:38.767Z,3.93
2023-01-19T05:28:05.508Z,4.08
2023-01-19T05:30:34.378Z,4.10
2023-01-19T05:33:10.089Z,4.10
2023-01-19T05:35:46.923Z,4.25
2023-01-19T05:41:57.330Z,4.18
2023-01-19T05:48:57.384Z,4.53
2023-01-19T05:51:24.004Z,4.79
2023-01-19T05:53:50.835Z,4.88
2023-01-19T05:56:17.503Z,4.83
2023-01-19T05:58:44.178Z,4.95
2023-01-19T06:01:11.237Z,5.00
2023-01-19T06:03:39.463Z,4.98
2023-01-19T06:06:06.538Z,4.90
2023-01-19T06:08:33.125Z,4.93
2023-01-19T06:10:59.731Z,4.90
2023-01-19T06:13:26.497Z,4.88
2023-01-19T06:16:00.642Z,4.84
2023-01-19T06:18:28.099Z,4.80
2023-01-19T06:20:58.795Z,4.94
2023-01-19T06:23:26.822Z,4.97
2023-01-19T06:25:53.535Z,5.15
2023-01-19T06:28:20.263Z,5.19
2023-01-19T06:30:50.831Z,5.25
2023-01-19T06:33:18.005Z,5.22
2023-01-19T06:35:49.100Z,5.32
2023-01-19T06:38:17.199Z,5.39
2023-01-19T06:40:44.061Z,5.25
2023-01-19T06:43:11.211Z,5.18
2023-01-19T06:45:39.365Z,4.94
2023-01-19T06:48:06.613Z,4.74
2023-01-19T06:50:33.405Z,4.65
2023-01-19T06:53:00.413Z,4.52
2023-01-19T06:55:27.697Z,4.54
2023-01-19T06:57:59.118Z,4.48
2023-01-19T07:00:26.218Z,4.48
2023-01-19T07:02:53.246Z,4.44
2023-01-19T07:05:20.038Z,4.47
2023-01-19T07:07:52.046Z,4.46
2023-01-19T07:10:18.955Z,4.28
2023-01-19T07:12:47.446Z,4.09
2023-01-19T07:15:15.608Z,3.74
2023-01-19T07:17:42.387Z,3.76
2023-01-19T07:20:13.112Z,3.76
2023-01-19T07:22:41.160Z,3.75
2023-01-19T07:25:08.339Z,3.69
2023-01-19T07:27:35.006Z,3.67
2023-01-19T07:30:01.763Z,3.45
2023-01-19T07:32:29.016Z,3.34
2023-01-19T07:34:55.832Z,3.25
2023-01-19T07:37:22.712Z,3.14
2023-01-19T07:39:49.373Z,3.15
2023-01-19T07:42:16.029Z,3.08
2023-01-19T07:44:42.872Z,3.15
2023-01-19T07:47:12.711Z,3.03
2023-01-19T07:49:39.872Z,3.17
2023-01-19T07:52:06.619Z,3.21
2023-01-19T07:54:33.741Z,3.09
2023-01-19T07:57:03.196Z,3.10
2023-01-19T07:59:31.167Z,3.04
2023-01-19T08:01:59.627Z,2.95
2023-01-19T08:04:27.677Z,2.91
2023-01-19T08:06:55.572Z,2.86
2023-01-19T08:09:22.346Z,2.91
2023-01-19T08:11:48.985Z,2.82
2023-01-19T08:14:15.617Z,2.90
2023-01-19T08:16:42.272Z,3.01
2023-01-19T08:19:08.924Z,2.88
2023-01-19T08:21:36.648Z,2.85
2023-01-19T08:24:03.504Z,2.95
2023-01-19T08:26:32.559Z,2.89
2023-01-19T08:29:02.323Z,2.87
2023-01-19T08:31:29.364Z,2.86
2023-01-19T08:33:56.669Z,2.84
2023-01-19T08:36:25.099Z,2.83
2023-01-19T08:38:52.082Z,3.14
2023-01-19T08:41:18.844Z,2.98
2023-01-19T08:43:45.855Z,3.24
2023-01-19T08:46:12.819Z,3.20
2023-01-19T08:48:40.106Z,3.27
2023-01-19T08:51:06.795Z,3.21
2023-01-19T08:53:34.283Z,3.20
2023-01-19T08:56:02.377Z,3.18
2023-01-19T09:02:11.349Z,3.60
2023-01-19T09:04:38.147Z,3.73
2023-01-19T09:09:37.961Z,3.98
2023-01-19T09:12:04.784Z,3.98
2023-01-19T09:14:31.477Z,4.06
2023-01-19T09:16:59.152Z,3.82
2023-01-19T09:19:25.912Z,3.79
2023-01-19T09:21:54.545Z,3.86
2023-01-19T09:24:21.281Z,3.71
2023-01-19T09:26:48.055Z,3.77
2023-01-19T09:29:14.648Z,3.81
2023-01-19T09:31:41.992Z,3.82
2023-01-19T09:34:08.749Z,4.04
2023-01-19T09:36:37.388Z,4.24
2023-01-19T09:39:04.120Z,4.24
2023-01-19T09:41:34.103Z,4.33
2023-01-19T09:44:01.189Z,4.22
2023-01-19T09:46:41.750Z,4.44
2023-01-19T09:49:23.460Z,4.54
2023-01-19T09:51:51.286Z,4.32
2023-01-19T09:54:20.887Z,4.28
2023-01-19T09:56:52.179Z,4.22
2023-01-19T09:59:22.395Z,4.48
2023-01-19T10:02:08.148Z,4.42
2023-01-19T10:04:39.017Z,4.42
2023-01-19T10:07:11.532Z,4.72
2023-01-19T10:10:02.760Z,4.57
2023-01-19T10:12:38.644Z,4.50
2023-01-19T10:15:11.498Z,4.53
2023-01-19T10:17:53.619Z,4.60
2023-01-19T10:20:33.515Z,4.67
2023-01-19T10:23:01.180Z,4.67
2023-01-19T10:25:28.147Z,4.83
2023-01-19T10:27:54.855Z,4.65
2023-01-19T10:30:28.171Z,4.77
2023-01-19T10:32:54.998Z,4.83
2023-01-19T10:35:25.188Z,4.72
2023-01-19T10:37:57.062Z,4.71
2023-01-19T10:40:45.098Z,4.81
2023-01-19T10:43:43.557Z,4.71
2023-01-19T10:46:23.662Z,4.92
2023-01-19T10:48:52.384Z,4.93
2023-01-19T10:51:19.941Z,4.89
2023-01-19T10:53:58.310Z,5.04
2023-01-19T10:56:34.463Z,5.24
2023-01-19T10:59:03.270Z,5.06
2023-01-19T11:01:31.400Z,4.84
2023-01-19T11:04:05.763Z,4.84
2023-01-19T11:06:34.409Z,4.96
2023-01-19T11:09:18.993Z,5.13
2023-01-19T11:11:48.911Z,5.18
2023-01-19T11:14:19.532Z,5.07
2023-01-19T11:16:51.882Z,4.96
2023-01-19T11:19:30.246Z,5.10
2023-01-19T11:22:15.127Z,5.08
2023-01-19T11:24:43.613Z,5.06
2023-01-19T11:27:10.243Z,5.12
2023-01-19T11:29:37.473Z,5.16
2023-01-19T11:32:20.624Z,5.38
2023-01-19T11:34:47.413Z,5.26
2023-01-19T11:37:17.417Z,5.19
2023-01-19T11:40:02.686Z,5.21
2023-01-19T11:42:31.682Z,5.25
2023-01-19T11:44:59.435Z,5.36
2023-01-19T11:50:42.839Z,5.13
2023-01-19T11:53:31.072Z,5.38
2023-01-19T11:56:14.140Z,5.41
2023-01-19T11:58:48.073Z,5.40
2023-01-19T12:01:22.422Z,5.52
2023-01-19T12:04:01.106Z,5.33
2023-01-19T12:06:36.098Z,5.63
2023-01-19T12:09:11.921Z,5.78
2023-01-19T12:11:41.837Z,5.51
2023-01-19T12:14:22.957Z,5.74
2023-01-19T12:16:52.215Z,5.68
2023-01-19T12:19:23.747Z,5.88
2023-01-19T12:21:52.573Z,5.90
2023-01-19T12:24:19.187Z,5.98
2023-01-19T12:27:00.723Z,5.94
2023-01-19T12:29:35.407Z,5.91
2023-01-19T12:32:14.182Z,6.21
2023-01-19T12:34:55.963Z,6.34
2023-01-19T12:37:31.564Z,6.36
2023-01-19T12:40:00.107Z,6.54
2023-01-19T12:42:27.353Z,6.69
2023-01-19T12:45:12.161Z,6.61
2023-01-19T12:47:39.161Z,6.71
2023-01-19T12:50:11.463Z,6.82
2023-01-19T12:52:49.513Z,6.88
2023-01-19T12:55:25.722Z,6.96
2023-01-19T12:58:13.725Z,7.00
2023-01-19T13:00:42.893Z,6.90
2023-01-19T13:03:18.612Z,7.06
2023-01-19T13:05:49.246Z,7.14
2023-01-19T13:08:18.310Z,7.00
2023-01-19T13:11:00.371Z,7.17
2023-01-19T13:13:47.870Z,7.11
2023-01-19T13:16:20.778Z,7.32
2023-01-19T13:19:07.966Z,7.24
2023-01-19T13:21:45.658Z,7.31
2023-01-19T13:24:22.690Z,7.27
2023-01-19T13:26:49.256Z,7.39
2023-01-19T13:29:21.415Z,7.40
2023-01-19T13:31:53.688Z,7.37
2023-01-19T13:34:23.376Z,7.45
2023-01-19T13:36:52.720Z,7.28
2023-01-19T13:39:41.607Z,7.31
2023-01-19T13:42:15.860Z,7.40
2023-01-19T13:44:51.532Z,7.47
2023-01-19T13:47:23.557Z,7.53
2023-01-19T13:49:58.616Z,7.35
2023-01-19T13:52:26.105Z,7.49
2023-01-19T13:54:54.718Z,7.58
2023-01-19T13:57:27.338Z,7.60
2023-01-19T14:00:12.729Z,7.63
2023-01-19T14:03:01.052Z,7.22
2023-01-19T14:05:35.781Z,7.45
2023-01-19T14:08:08.896Z,7.61
2023-01-19T14:10:37.100Z,7.46
2023-01-19T14:13:06.245Z,7.65
2023-01-19T14:15:34.784Z,7.73
2023-01-19T14:18:22.405Z,7.66
2023-01-19T14:21:03.584Z,7.67
2023-01-19T14:23:48.457Z,7.83
2023-01-19T14:26:40.231Z,7.74
2023-01-19T14:29:09.954Z,7.78
2023-01-19T14:31:45.385Z,7.68
2023-01-19T14:34:46.199Z,7.80
2023-01-19T14:37:28.751Z,7.73
2023-01-19T14:40:14.895Z,7.70
2023-01-19T14:43:00.232Z,7.77
2023-01-19T14:45:40.596Z,7.83
2023-01-19T14:48:18.812Z,7.72
2023-01-19T14:51:01.940Z,7.74
2023-01-19T14:53:32.138Z,7.77
2023-01-19T14:56:04.846Z,7.78
2023-01-19T14:58:33.635Z,7.71
2023-01-19T15:01:00.475Z,7.83
2023-01-19T15:03:43.353Z,7.83
2023-01-19T15:06:15.964Z,7.78
2023-01-19T15:08:42.969Z,7.69
2023-01-19T15:11:13.938Z,7.82
2023-01-19T15:13:41.696Z,7.80
2023-01-19T15:16:09.187Z,7.77
2023-01-19T15:18:36.240Z,7.87
2023-01-19T15:21:03.458Z,7.87
2023-01-19T15:23:31.003Z,7.91
2023-01-19T15:26:01.600Z,7.96
2023-01-19T15:28:28.284Z,7.98
2023-01-19T15:30:55.071Z,8.01
2023-01-19T15:33:23.615Z,7.98
2023-01-19T15:35:50.587Z,8.02
2023-01-19T15:38:17.313Z,7.99
2023-01-19T15:40:44.318Z,7.94
2023-01-19T15:43:11.289Z,7.98
2023-01-19T15:45:44.332Z,7.96
2023-01-19T15:48:11.996Z,7.87
2023-01-19T15:50:43.919Z,7.88
2023-01-19T15:53:15.848Z,7.98
2023-01-19T15:55:43.063Z,7.83
2023-01-19T15:58:10.049Z,7.72
2023-01-19T16:00:36.753Z,7.76
2023-01-19T16:03:03.671Z,7.81
2023-01-19T16:05:42.565Z,7.88
2023-01-19T16:08:11.128Z,7.92
2023-01-19T16:10:38.035Z,7.91
2023-01-19T16:13:04.685Z,7.97
2023-01-19T16:15:31.318Z,7.92
2023-01-19T16:17:58.529Z,7.87
2023-01-19T16:20:25.185Z,7.81
2023-01-19T16:22:51.824Z,7.92
2023-01-19T16:25:18.514Z,8.07
2023-01-19T16:27:45.187Z,7.98
2023-01-19T16:30:12.891Z,8.05
2023-01-19T16:32:39.668Z,7.96
2023-01-19T16:35:06.647Z,7.94
2023-01-19T16:37:33.512Z,7.93
2023-01-19T16:40:00.133Z,8.01
2023-01-19T16:42:27.102Z,8.01
2023-01-19T16:44:54.645Z,7.99
